sensor_id;sensor_type;location;lat;lon;timestamp;P1;durP1;ratioP1;P2;durP2;ratioP2
38909;SDS011;24676;51.360;12.354;2022-10-22T04:00:37;2.35;;;1.90;;
38909;SDS011;24676;51.360;12.354;2022-10-22T04:03:21;4.25;;;2.67;;
38909;SDS011;24676;51.360;12.354;2022-10-22T04:06:06;2.10;;;1.92;;
38909;SDS011;24676;51.360;12.354;2022-10-22T04:08:52;5.75;;;3.33;;
38909;SDS011;24676;51.360;12.354;2022-10-22T04:11:36;5.13;;;2.28;;
38909;SDS011;24676;51.360;12.354;2022-10-22T04:14:21;2.55;;;2.13;;
38909;SDS011;24676;51.360;12.354;2022-10-22T04:17:05;3.00;;;2.60;;
38909;SDS011;24676;51.360;12.354;2022-10-22T04:19:49;3.05;;;1.88;;
38909;SDS011;24676;51.360;12.354;2022-10-22T04:22:33;3.50;;;2.17;;
38909;SDS011;24676;51.360;12.354;2022-10-22T04:25:18;5.90;;;2.97;;
38909;SDS011;24676;51.360;12.354;2022-10-22T04:28:04;1.75;;;1.60;;
38909;SDS011;24676;51.360;12.354;2022-10-22T04:30:50;4.45;;;2.38;;
38909;SDS011;24676;51.360;12.354;2022-10-22T04:33:35;3.20;;;2.25;;
38909;SDS011;24676;51.360;12.354;2022-10-22T04:36:19;3.42;;;2.70;;
38909;SDS011;24676;51.360;12.354;2022-10-22T04:39:04;2.13;;;1.83;;
38909;SDS011;24676;51.360;12.354;2022-10-22T04:41:48;5.68;;;2.80;;
38909;SDS011;24676;51.360;12.354;2022-10-22T04:44:33;26.95;;;3.17;;
38909;SDS011;24676;51.360;12.354;2022-10-22T04:47:17;2.40;;;2.20;;
38909;SDS011;24676;51.360;12.354;2022-10-22T04:50:01;3.08;;;2.75;;
38909;SDS011;24676;51.360;12.354;2022-10-22T04:52:46;2.58;;;2.38;;
38909;SDS011;24676;51.360;12.354;2022-10-22T04:55:30;3.88;;;1.85;;
38909;SDS011;24676;51.360;12.354;2022-10-22T04:58:14;4.80;;;2.63;;
38909;SDS011;24676;51.360;12.354;2022-10-22T05:00:58;2.47;;;2.25;;
38909;SDS011;24676;51.360;12.354;2022-10-22T05:03:42;3.60;;;3.30;;
38909;SDS011;24676;51.360;12.354;2022-10-22T05:06:28;4.85;;;2.03;;
38909;SDS011;24676;51.360;12.354;2022-10-22T05:09:18;3.40;;;1.75;;
38909;SDS011;24676;51.360;12.354;2022-10-22T05:12:03;2.55;;;2.30;;
38909;SDS011;24676;51.360;12.354;2022-10-22T05:14:48;2.60;;;2.22;;
38909;SDS011;24676;51.360;12.354;2022-10-22T05:17:35;2.53;;;1.58;;
38909;SDS011;24676;51.360;12.354;2022-10-22T05:20:20;2.88;;;2.15;;
38909;SDS011;24676;51.360;12.354;2022-10-22T05:23:04;3.50;;;2.15;;
38909;SDS011;24676;51.360;12.354;2022-10-22T05:25:49;1.55;;;1.45;;
38909;SDS011;24676;51.360;12.354;2022-10-22T05:28:33;3.88;;;2.30;;
38909;SDS011;24676;51.360;12.354;2022-10-22T05:31:18;9.38;;;2.28;;
38909;SDS011;24676;51.360;12.354;2022-10-22T05:34:03;3.15;;;2.35;;
38909;SDS011;24676;51.360;12.354;2022-10-22T05:36:47;3.85;;;3.08;;
38909;SDS011;24676;51.360;12.354;2022-10-22T05:39:31;4.43;;;2.17;;
38909;SDS011;24676;51.360;12.354;2022-10-22T05:42:19;3.60;;;2.90;;
38909;SDS011;24676;51.360;12.354;2022-10-22T05:45:03;3.03;;;2.38;;
38909;SDS011;24676;51.360;12.354;2022-10-22T05:47:48;6.00;;;1.83;;
38909;SDS011;24676;51.360;12.354;2022-10-22T05:50:34;4.85;;;3.60;;
38909;SDS011;24676;51.360;12.354;2022-10-22T05:53:19;5.53;;;2.90;;
38909;SDS011;24676;51.360;12.354;2022-10-22T05:56:05;3.30;;;2.40;;
38909;SDS011;24676;51.360;12.354;2022-10-22T05:58:51;3.85;;;3.08;;
38909;SDS011;24676;51.360;12.354;2022-10-22T06:01:35;3.97;;;2.30;;
38909;SDS011;24676;51.360;12.354;2022-10-22T06:04:19;3.28;;;2.80;;
38909;SDS011;24676;51.360;12.354;2022-10-22T06:07:04;4.60;;;2.75;;
38909;SDS011;24676;51.360;12.354;2022-10-22T06:09:48;3.55;;;3.25;;
38909;SDS011;24676;51.360;12.354;2022-10-22T06:12:33;7.55;;;2.42;;
38909;SDS011;24676;51.360;12.354;2022-10-22T06:15:17;2.22;;;2.03;;
38909;SDS011;24676;51.360;12.354;2022-10-22T06:18:03;5.07;;;2.35;;
38909;SDS011;24676;51.360;12.354;2022-10-22T06:20:47;4.38;;;2.80;;
38909;SDS011;24676;51.360;12.354;2022-10-22T06:23:31;6.32;;;2.65;;
38909;SDS011;24676;51.360;12.354;2022-10-22T06:26:16;2.00;;;1.73;;
38909;SDS011;24676;51.360;12.354;2022-10-22T06:29:00;2.28;;;1.95;;
38909;SDS011;24676;51.360;12.354;2022-10-22T06:31:45;2.28;;;2.08;;
38909;SDS011;24676;51.360;12.354;2022-10-22T06:34:29;3.00;;;2.00;;
38909;SDS011;24676;51.360;12.354;2022-10-22T06:37:13;5.80;;;2.13;;
38909;SDS011;24676;51.360;12.354;2022-10-22T06:39:58;2.50;;;2.05;;
38909;SDS011;24676;51.360;12.354;2022-10-22T06:42:42;4.85;;;2.30;;
38909;SDS011;24676;51.360;12.354;2022-10-22T06:45:26;2.15;;;1.85;;
38909;SDS011;24676;51.360;12.354;2022-10-22T06:48:10;2.15;;;1.77;;
38909;SDS011;24676;51.360;12.354;2022-10-22T06:50:55;2.53;;;2.10;;
38909;SDS011;24676;51.360;12.354;2022-10-22T06:53:43;3.35;;;2.35;;
38909;SDS011;24676;51.360;12.354;2022-10-22T06:56:27;2.03;;;1.92;;
38909;SDS011;24676;51.360;12.354;2022-10-22T06:59:12;4.07;;;3.78;;
38909;SDS011;24676;51.360;12.354;2022-10-22T07:01:56;5.95;;;2.83;;
38909;SDS011;24676;51.360;12.354;2022-10-22T07:04:40;2.70;;;2.10;;
38909;SDS011;24676;51.360;12.354;2022-10-22T07:07:25;2.40;;;1.90;;
38909;SDS011;24676;51.360;12.354;2022-10-22T07:10:09;3.30;;;2.40;;
38909;SDS011;24676;51.360;12.354;2022-10-22T07:12:53;2.08;;;1.77;;
38909;SDS011;24676;51.360;12.354;2022-10-22T07:15:38;3.88;;;3.58;;
38909;SDS011;24676;51.360;12.354;2022-10-22T07:18:22;3.75;;;2.28;;
38909;SDS011;24676;51.360;12.354;2022-10-22T07:21:07;3.78;;;1.95;;
38909;SDS011;24676;51.360;12.354;2022-10-22T07:23:53;4.70;;;2.35;;
38909;SDS011;24676;51.360;12.354;2022-10-22T07:26:37;2.08;;;1.98;;
38909;SDS011;24676;51.360;12.354;2022-10-22T07:29:21;2.25;;;1.77;;
38909;SDS011;24676;51.360;12.354;2022-10-22T07:32:06;3.55;;;2.65;;
38909;SDS011;24676;51.360;12.354;2022-10-22T07:34:50;1.95;;;1.25;;
38909;SDS011;24676;51.360;12.354;2022-10-22T07:37:34;1.63;;;1.27;;
38909;SDS011;24676;51.360;12.354;2022-10-22T07:40:19;2.45;;;1.90;;
38909;SDS011;24676;51.360;12.354;2022-10-22T07:43:03;5.85;;;2.03;;
38909;SDS011;24676;51.360;12.354;2022-10-22T07:45:48;1.50;;;1.40;;
38909;SDS011;24676;51.360;12.354;2022-10-22T07:48:32;2.20;;;2.00;;
38909;SDS011;24676;51.360;12.354;2022-10-22T07:51:16;4.25;;;1.80;;
38909;SDS011;24676;51.360;12.354;2022-10-22T07:54:01;3.28;;;1.83;;
38909;SDS011;24676;51.360;12.354;2022-10-22T07:56:45;1.65;;;1.55;;
38909;SDS011;24676;51.360;12.354;2022-10-22T07:59:29;2.55;;;1.50;;
38909;SDS011;24676;51.360;12.354;2022-10-22T08:02:13;1.67;;;1.52;;
38909;SDS011;24676;51.360;12.354;2022-10-22T08:04:58;2.22;;;1.55;;
38909;SDS011;24676;51.360;12.354;2022-10-22T08:07:42;1.65;;;1.58;;
38909;SDS011;24676;51.360;12.354;2022-10-22T08:10:26;3.85;;;1.92;;
38909;SDS011;24676;51.360;12.354;2022-10-22T08:13:10;1.60;;;1.50;;
38909;SDS011;24676;51.360;12.354;2022-10-22T08:15:56;2.83;;;2.25;;
38909;SDS011;24676;51.360;12.354;2022-10-22T08:18:41;1.17;;;1.10;;
38909;SDS011;24676;51.360;12.354;2022-10-22T08:21:26;1.00;;;1.00;;
38909;SDS011;24676;51.360;12.354;2022-10-22T08:24:10;0.93;;;0.90;;
38909;SDS011;24676;51.360;12.354;2022-10-22T08:26:55;2.97;;;2.22;;
38909;SDS011;24676;51.360;12.354;2022-10-22T08:29:39;5.78;;;1.40;;
38909;SDS011;24676;51.360;12.354;2022-10-22T08:32:24;0.70;;;0.57;;
38909;SDS011;24676;51.360;12.354;2022-10-22T08:35:08;0.70;;;0.70;;
38909;SDS011;24676;51.360;12.354;2022-10-22T08:37:52;2.08;;;0.60;;
38909;SDS011;24676;51.360;12.354;2022-10-22T08:40:37;1.42;;;1.30;;
38909;SDS011;24676;51.360;12.354;2022-10-22T08:43:38;1.50;;;1.27;;
38909;SDS011;24676;51.360;12.354;2022-10-22T08:49:50;3.78;;;1.85;;
38909;SDS011;24676;51.360;12.354;2022-10-22T08:52:36;0.63;;;0.63;;
38909;SDS011;24676;51.360;12.354;2022-10-22T08:55:24;0.40;;;0.40;;
38909;SDS011;24676;51.360;12.354;2022-10-22T09:01:23;1.25;;;0.75;;
38909;SDS011;24676;51.360;12.354;2022-10-22T09:07:07;1.45;;;0.80;;
38909;SDS011;24676;51.360;12.354;2022-10-22T09:09:53;1.13;;;0.82;;
38909;SDS011;24676;51.360;12.354;2022-10-22T09:12:42;4.55;;;0.50;;
38909;SDS011;24676;51.360;12.354;2022-10-22T09:15:27;0.43;;;0.30;;
38909;SDS011;24676;51.360;12.354;2022-10-22T09:21:22;0.55;;;0.32;;
38909;SDS011;24676;51.360;12.354;2022-10-22T09:24:38;2.97;;;0.68;;
38909;SDS011;24676;51.360;12.354;2022-10-22T09:27:28;2.10;;;0.43;;
38909;SDS011;24676;51.360;12.354;2022-10-22T09:30:18;0.25;;;0.20;;
38909;SDS011;24676;51.360;12.354;2022-10-22T09:33:19;0.40;;;0.40;;
38909;SDS011;24676;51.360;12.354;2022-10-22T09:36:17;0.22;;;0.22;;
38909;SDS011;24676;51.360;12.354;2022-10-22T09:39:04;1.73;;;0.10;;
38909;SDS011;24676;51.360;12.354;2022-10-22T09:42:09;1.02;;;0.75;;
38909;SDS011;24676;51.360;12.354;2022-10-22T09:44:57;0.55;;;0.40;;
38909;SDS011;24676;51.360;12.354;2022-10-22T09:47:42;0.40;;;0.38;;
38909;SDS011;24676;51.360;12.354;2022-10-22T09:50:38;0.25;;;0.25;;
38909;SDS011;24676;51.360;12.354;2022-10-22T09:53:37;0.98;;;0.95;;
38909;SDS011;24676;51.360;12.354;2022-10-22T09:59:14;0.25;;;0.20;;
38909;SDS011;24676;51.360;12.354;2022-10-22T10:02:19;1.08;;;0.82;;
38909;SDS011;24676;51.360;12.354;2022-10-22T10:05:05;1.08;;;0.47;;
38909;SDS011;24676;51.360;12.354;2022-10-22T10:07:50;0.40;;;0.40;;
38909;SDS011;24676;51.360;12.354;2022-10-22T10:13:51;0.35;;;0.30;;
38909;SDS011;24676;51.360;12.354;2022-10-22T10:47:14;0.50;;;0.40;;
38909;SDS011;24676;51.360;12.354;2022-10-22T10:50:13;0.20;;;0.20;;
38909;SDS011;24676;51.360;12.354;2022-10-22T11:11:20;0.43;;;0.22;;
38909;SDS011;24676;51.360;12.354;2022-10-22T11:17:20;0.52;;;0.52;;
38909;SDS011;24676;51.360;12.354;2022-10-22T11:20:17;0.17;;;0.13;;
38909;SDS011;24676;51.360;12.354;2022-10-22T11:23:12;0.10;;;0.10;;
38909;SDS011;24676;51.360;12.354;2022-10-22T11:26:00;0.28;;;0.17;;
38909;SDS011;24676;51.360;12.354;2022-10-22T11:28:47;0.17;;;0.00;;
38909;SDS011;24676;51.360;12.354;2022-10-22T11:31:35;0.00;;;0.00;;
38909;SDS011;24676;51.360;12.354;2022-10-22T11:54:28;0.40;;;0.28;;
38909;SDS011;24676;51.360;12.354;2022-10-22T11:57:27;3.45;;;0.30;;
38909;SDS011;24676;51.360;12.354;2022-10-22T12:28:25;1.55;;;0.40;;
38909;SDS011;24676;51.360;12.354;2022-10-22T12:31:14;1.45;;;0.40;;
38909;SDS011;24676;51.360;12.354;2022-10-22T12:33:59;0.38;;;0.28;;
38909;SDS011;24676;51.360;12.354;2022-10-22T12:36:45;2.55;;;0.65;;
38909;SDS011;24676;51.360;12.354;2022-10-22T12:39:30;0.10;;;0.10;;
38909;SDS011;24676;51.360;12.354;2022-10-22T12:42:17;0.45;;;0.30;;
38909;SDS011;24676;51.360;12.354;2022-10-22T12:45:02;2.30;;;0.20;;
38909;SDS011;24676;51.360;12.354;2022-10-22T12:47:50;2.30;;;0.60;;
38909;SDS011;24676;51.360;12.354;2022-10-22T12:50:43;1.13;;;0.28;;
38909;SDS011;24676;51.360;12.354;2022-10-22T12:53:52;0.10;;;0.10;;
38909;SDS011;24676;51.360;12.354;2022-10-22T12:56:38;3.53;;;0.20;;
38909;SDS011;24676;51.360;12.354;2022-10-22T12:59:26;0.20;;;0.20;;
38909;SDS011;24676;51.360;12.354;2022-10-22T13:02:18;1.25;;;0.43;;
38909;SDS011;24676;51.360;12.354;2022-10-22T13:08:08;0.52;;;0.20;;
38909;SDS011;24676;51.360;12.354;2022-10-22T13:28:00;0.60;;;0.40;;
38909;SDS011;24676;51.360;12.354;2022-10-22T13:30:54;3.97;;;0.30;;
38909;SDS011;24676;51.360;12.354;2022-10-22T13:33:41;0.35;;;0.35;;
38909;SDS011;24676;51.360;12.354;2022-10-22T13:36:27;0.30;;;0.30;;
38909;SDS011;24676;51.360;12.354;2022-10-22T13:39:17;3.42;;;0.40;;
38909;SDS011;24676;51.360;12.354;2022-10-22T13:42:02;2.25;;;0.38;;
38909;SDS011;24676;51.360;12.354;2022-10-22T13:44:53;0.60;;;0.60;;
38909;SDS011;24676;51.360;12.354;2022-10-22T13:47:37;0.70;;;0.45;;
38909;SDS011;24676;51.360;12.354;2022-10-22T13:50:22;8.87;;;1.23;;
38909;SDS011;24676;51.360;12.354;2022-10-22T13:53:25;4.80;;;0.65;;
38909;SDS011;24676;51.360;12.354;2022-10-22T13:56:12;0.60;;;0.60;;
38909;SDS011;24676;51.360;12.354;2022-10-22T13:58:58;0.80;;;0.80;;
38909;SDS011;24676;51.360;12.354;2022-10-22T14:01:42;0.55;;;0.45;;
38909;SDS011;24676;51.360;12.354;2022-10-22T14:04:28;0.47;;;0.43;;
38909;SDS011;24676;51.360;12.354;2022-10-22T14:07:13;0.40;;;0.40;;
38909;SDS011;24676;51.360;12.354;2022-10-22T14:09:59;0.80;;;0.53;;
38909;SDS011;24676;51.360;12.354;2022-10-22T14:12:43;0.47;;;0.47;;
38909;SDS011;24676;51.360;12.354;2022-10-22T14:15:28;0.60;;;0.60;;
38909;SDS011;24676;51.360;12.354;2022-10-22T14:18:14;0.47;;;0.47;;
38909;SDS011;24676;51.360;12.354;2022-10-22T14:21:06;7.82;;;1.27;;
38909;SDS011;24676;51.360;12.354;2022-10-22T14:23:51;2.17;;;0.90;;
38909;SDS011;24676;51.360;12.354;2022-10-22T14:26:36;0.50;;;0.50;;
38909;SDS011;24676;51.360;12.354;2022-10-22T14:29:20;2.50;;;0.90;;
38909;SDS011;24676;51.360;12.354;2022-10-22T14:32:05;0.65;;;0.43;;
38909;SDS011;24676;51.360;12.354;2022-10-22T14:34:58;1.90;;;0.98;;
38909;SDS011;24676;51.360;12.354;2022-10-22T14:37:44;0.95;;;0.80;;
38909;SDS011;24676;51.360;12.354;2022-10-22T14:40:28;4.13;;;0.85;;
38909;SDS011;24676;51.360;12.354;2022-10-22T14:43:23;1.23;;;1.13;;
38909;SDS011;24676;51.360;12.354;2022-10-22T14:46:10;1.25;;;0.73;;
38909;SDS011;24676;51.360;12.354;2022-10-22T14:48:56;5.45;;;2.67;;
38909;SDS011;24676;51.360;12.354;2022-10-22T14:51:40;3.80;;;2.47;;
38909;SDS011;24676;51.360;12.354;2022-10-22T14:54:24;2.03;;;0.68;;
38909;SDS011;24676;51.360;12.354;2022-10-22T14:57:09;0.88;;;0.60;;
38909;SDS011;24676;51.360;12.354;2022-10-22T14:59:54;1.55;;;1.45;;
38909;SDS011;24676;51.360;12.354;2022-10-22T15:02:38;1.00;;;0.90;;
38909;SDS011;24676;51.360;12.354;2022-10-22T15:05:23;2.08;;;1.92;;
38909;SDS011;24676;51.360;12.354;2022-10-22T15:08:07;1.00;;;0.90;;
38909;SDS011;24676;51.360;12.354;2022-10-22T15:13:42;2.03;;;1.30;;
38909;SDS011;24676;51.360;12.354;2022-10-22T15:16:27;1.60;;;1.50;;
38909;SDS011;24676;51.360;12.354;2022-10-22T15:19:11;3.83;;;2.43;;
38909;SDS011;24676;51.360;12.354;2022-10-22T15:21:56;5.80;;;2.20;;
38909;SDS011;24676;51.360;12.354;2022-10-22T15:24:40;1.80;;;1.70;;
38909;SDS011;24676;51.360;12.354;2022-10-22T15:27:28;6.95;;;1.40;;
38909;SDS011;24676;51.360;12.354;2022-10-22T15:30:13;2.95;;;1.60;;
38909;SDS011;24676;51.360;12.354;2022-10-22T15:32:57;2.30;;;1.50;;
38909;SDS011;24676;51.360;12.354;2022-10-22T15:35:41;4.07;;;1.40;;
38909;SDS011;24676;51.360;12.354;2022-10-22T15:38:28;2.78;;;2.58;;
38909;SDS011;24676;51.360;12.354;2022-10-22T15:41:12;4.82;;;2.10;;
38909;SDS011;24676;51.360;12.354;2022-10-22T15:43:57;4.25;;;1.60;;
38909;SDS011;24676;51.360;12.354;2022-10-22T15:46:41;7.65;;;3.33;;
38909;SDS011;24676;51.360;12.354;2022-10-22T15:49:26;12.07;;;6.68;;
38909;SDS011;24676;51.360;12.354;2022-10-22T15:52:10;16.83;;;9.95;;
38909;SDS011;24676;51.360;12.354;2022-10-22T15:54:55;23.92;;;15.95;;
38909;SDS011;24676;51.360;12.354;2022-10-22T15:57:39;13.38;;;8.32;;
38909;SDS011;24676;51.360;12.354;2022-10-22T16:00:23;6.65;;;4.88;;
38909;SDS011;24676;51.360;12.354;2022-10-22T16:03:08;6.20;;;3.58;;
38909;SDS011;24676;51.360;12.354;2022-10-22T16:05:52;7.30;;;3.65;;
38909;SDS011;24676;51.360;12.354;2022-10-22T16:08:37;4.32;;;1.55;;
38909;SDS011;24676;51.360;12.354;2022-10-22T16:11:21;2.65;;;2.28;;
38909;SDS011;24676;51.360;12.354;2022-10-22T16:14:06;2.28;;;1.98;;
38909;SDS011;24676;51.360;12.354;2022-10-22T16:16:53;2.20;;;1.90;;
38909;SDS011;24676;51.360;12.354;2022-10-22T16:19:38;3.22;;;1.75;;
38909;SDS011;24676;51.360;12.354;2022-10-22T16:22:22;3.28;;;1.92;;
38909;SDS011;24676;51.360;12.354;2022-10-22T16:28:00;1.92;;;1.50;;
38909;SDS011;24676;51.360;12.354;2022-10-22T16:30:45;1.98;;;1.60;;
38909;SDS011;24676;51.360;12.354;2022-10-22T16:33:29;1.95;;;1.33;;
38909;SDS011;24676;51.360;12.354;2022-10-22T16:36:24;3.97;;;1.42;;
38909;SDS011;24676;51.360;12.354;2022-10-22T16:39:08;4.25;;;1.80;;
38909;SDS011;24676;51.360;12.354;2022-10-22T16:41:52;8.63;;;2.65;;
38909;SDS011;24676;51.360;12.354;2022-10-22T16:44:37;7.85;;;3.50;;
38909;SDS011;24676;51.360;12.354;2022-10-22T16:47:21;10.30;;;4.05;;
38909;SDS011;24676;51.360;12.354;2022-10-22T16:50:06;7.05;;;3.78;;
38909;SDS011;24676;51.360;12.354;2022-10-22T16:52:51;2.97;;;2.50;;
38909;SDS011;24676;51.360;12.354;2022-10-22T16:55:39;5.18;;;3.40;;
38909;SDS011;24676;51.360;12.354;2022-10-22T16:58:23;3.05;;;2.70;;
38909;SDS011;24676;51.360;12.354;2022-10-22T17:01:08;4.90;;;2.85;;
38909;SDS011;24676;51.360;12.354;2022-10-22T17:03:53;9.32;;;4.40;;
38909;SDS011;24676;51.360;12.354;2022-10-22T17:06:37;4.60;;;3.22;;
38909;SDS011;24676;51.360;12.354;2022-10-22T17:09:22;8.32;;;3.67;;
38909;SDS011;24676;51.360;12.354;2022-10-22T17:12:06;12.02;;;6.30;;
38909;SDS011;24676;51.360;12.354;2022-10-22T17:14:51;8.15;;;4.38;;
38909;SDS011;24676;51.360;12.354;2022-10-22T17:17:35;5.13;;;3.85;;
38909;SDS011;24676;51.360;12.354;2022-10-22T17:20:20;6.00;;;4.35;;
38909;SDS011;24676;51.360;12.354;2022-10-22T17:23:04;7.60;;;4.88;;
38909;SDS011;24676;51.360;12.354;2022-10-22T17:25:48;3.35;;;2.67;;
38909;SDS011;24676;51.360;12.354;2022-10-22T17:28:42;8.40;;;4.60;;
38909;SDS011;24676;51.360;12.354;2022-10-22T17:31:28;6.78;;;4.63;;
38909;SDS011;24676;51.360;12.354;2022-10-22T17:34:18;3.10;;;2.53;;
38909;SDS011;24676;51.360;12.354;2022-10-22T17:37:02;4.70;;;2.55;;
38909;SDS011;24676;51.360;12.354;2022-10-22T17:39:47;3.67;;;2.25;;
38909;SDS011;24676;51.360;12.354;2022-10-22T17:42:31;1.73;;;1.52;;
38909;SDS011;24676;51.360;12.354;2022-10-22T17:45:15;7.10;;;2.53;;
38909;SDS011;24676;51.360;12.354;2022-10-22T17:48:00;3.28;;;2.97;;
38909;SDS011;24676;51.360;12.354;2022-10-22T17:50:44;3.85;;;2.55;;
38909;SDS011;24676;51.360;12.354;2022-10-22T17:53:29;7.53;;;3.30;;
38909;SDS011;24676;51.360;12.354;2022-10-22T17:56:14;5.07;;;3.47;;
38909;SDS011;24676;51.360;12.354;2022-10-22T17:59:00;5.95;;;4.18;;
38909;SDS011;24676;51.360;12.354;2022-10-22T18:01:44;3.13;;;2.67;;
38909;SDS011;24676;51.360;12.354;2022-10-22T18:04:30;2.75;;;2.33;;
38909;SDS011;24676;51.360;12.354;2022-10-22T18:07:16;4.57;;;1.77;;
38909;SDS011;24676;51.360;12.354;2022-10-22T18:10:01;4.00;;;1.90;;
38909;SDS011;24676;51.360;12.354;2022-10-22T18:12:46;2.17;;;1.30;;
38909;SDS011;24676;51.360;12.354;2022-10-22T18:15:30;4.05;;;3.40;;
38909;SDS011;24676;51.360;12.354;2022-10-22T18:18:16;3.00;;;2.28;;
38909;SDS011;24676;51.360;12.354;2022-10-22T18:21:00;2.53;;;2.17;;
38909;SDS011;24676;51.360;12.354;2022-10-22T18:23:46;3.20;;;2.72;;
38909;SDS011;24676;51.360;12.354;2022-10-22T18:26:30;2.95;;;1.70;;
38909;SDS011;24676;51.360;12.354;2022-10-22T18:29:15;3.90;;;2.25;;
38909;SDS011;24676;51.360;12.354;2022-10-22T18:32:01;6.90;;;4.93;;
38909;SDS011;24676;51.360;12.354;2022-10-22T18:34:48;6.50;;;4.30;;
38909;SDS011;24676;51.360;12.354;2022-10-22T18:37:32;8.98;;;4.57;;
38909;SDS011;24676;51.360;12.354;2022-10-22T18:40:18;5.32;;;3.22;;
38909;SDS011;24676;51.360;12.354;2022-10-22T18:43:02;3.70;;;1.92;;
38909;SDS011;24676;51.360;12.354;2022-10-22T18:45:47;7.22;;;2.38;;
38909;SDS011;24676;51.360;12.354;2022-10-22T18:48:31;3.15;;;2.30;;
38909;SDS011;24676;51.360;12.354;2022-10-22T18:51:16;8.40;;;2.10;;
38909;SDS011;24676;51.360;12.354;2022-10-22T18:54:01;4.88;;;3.63;;
38909;SDS011;24676;51.360;12.354;2022-10-22T18:56:46;4.82;;;2.92;;
38909;SDS011;24676;51.360;12.354;2022-10-22T18:59:30;7.15;;;3.45;;
38909;SDS011;24676;51.360;12.354;2022-10-22T19:02:15;5.35;;;3.08;;
38909;SDS011;24676;51.360;12.354;2022-10-22T19:04:59;10.70;;;2.90;;
38909;SDS011;24676;51.360;12.354;2022-10-22T19:07:44;4.30;;;3.13;;
38909;SDS011;24676;51.360;12.354;2022-10-22T19:10:28;8.48;;;2.97;;
38909;SDS011;24676;51.360;12.354;2022-10-22T19:13:13;7.25;;;2.85;;
38909;SDS011;24676;51.360;12.354;2022-10-22T19:16:03;4.10;;;3.03;;
38909;SDS011;24676;51.360;12.354;2022-10-22T19:18:52;5.60;;;4.53;;
38909;SDS011;24676;51.360;12.354;2022-10-22T19:21:41;4.78;;;2.88;;
38909;SDS011;24676;51.360;12.354;2022-10-22T19:24:26;4.25;;;2.67;;
38909;SDS011;24676;51.360;12.354;2022-10-22T19:27:11;5.80;;;3.45;;
38909;SDS011;24676;51.360;12.354;2022-10-22T19:29:55;4.32;;;3.08;;
38909;SDS011;24676;51.360;12.354;2022-10-22T19:32:40;3.58;;;2.25;;
38909;SDS011;24676;51.360;12.354;2022-10-22T19:35:24;6.30;;;3.17;;
38909;SDS011;24676;51.360;12.354;2022-10-22T19:38:08;8.18;;;4.57;;
38909;SDS011;24676;51.360;12.354;2022-10-22T19:40:53;8.32;;;4.68;;
38909;SDS011;24676;51.360;12.354;2022-10-22T19:43:41;21.05;;;9.40;;
38909;SDS011;24676;51.360;12.354;2022-10-22T19:46:27;19.75;;;9.82;;
38909;SDS011;24676;51.360;12.354;2022-10-22T19:49:12;17.63;;;9.93;;
38909;SDS011;24676;51.360;12.354;2022-10-22T19:51:57;34.17;;;14.38;;
38909;SDS011;24676;51.360;12.354;2022-10-22T19:54:41;32.50;;;13.18;;
38909;SDS011;24676;51.360;12.354;2022-10-22T19:57:28;18.40;;;8.73;;
38909;SDS011;24676;51.360;12.354;2022-10-22T20:00:13;13.60;;;6.57;;
38909;SDS011;24676;51.360;12.354;2022-10-22T20:02:57;12.82;;;5.57;;
38909;SDS011;24676;51.360;12.354;2022-10-22T20:05:42;9.15;;;5.63;;
38909;SDS011;24676;51.360;12.354;2022-10-22T20:08:26;6.10;;;4.15;;
38909;SDS011;24676;51.360;12.354;2022-10-22T20:11:16;7.60;;;3.67;;
38909;SDS011;24676;51.360;12.354;2022-10-22T20:14:05;11.32;;;3.53;;
38909;SDS011;24676;51.360;12.354;2022-10-22T20:16:49;6.50;;;4.22;;
38909;SDS011;24676;51.360;12.354;2022-10-22T20:19:34;4.15;;;2.85;;
38909;SDS011;24676;51.360;12.354;2022-10-22T20:22:18;5.85;;;3.72;;
38909;SDS011;24676;51.360;12.354;2022-10-22T20:25:03;3.50;;;2.40;;
38909;SDS011;24676;51.360;12.354;2022-10-22T20:27:48;1.85;;;1.75;;
38909;SDS011;24676;51.360;12.354;2022-10-22T20:30:32;4.32;;;2.50;;
38909;SDS011;24676;51.360;12.354;2022-10-22T20:33:17;1.80;;;1.65;;
38909;SDS011;24676;51.360;12.354;2022-10-22T20:36:06;4.50;;;2.55;;
38909;SDS011;24676;51.360;12.354;2022-10-22T20:38:56;1.05;;;1.05;;
38909;SDS011;24676;51.360;12.354;2022-10-22T20:41:42;1.60;;;1.50;;
38909;SDS011;24676;51.360;12.354;2022-10-22T20:44:26;1.58;;;1.48;;
38909;SDS011;24676;51.360;12.354;2022-10-22T20:47:10;2.15;;;1.80;;
38909;SDS011;24676;51.360;12.354;2022-10-22T20:49:55;1.40;;;1.30;;
38909;SDS011;24676;51.360;12.354;2022-10-22T20:52:40;3.40;;;1.70;;
38909;SDS011;24676;51.360;12.354;2022-10-22T20:55:24;4.50;;;3.95;;
38909;SDS011;24676;51.360;12.354;2022-10-22T20:58:09;4.25;;;2.83;;
